LKNA

Náměšť Air Base Airport

Náměšť, Czech Republic
TAF LKNA 141700Z 1418/1518 02010KT 7000 OVC022 TEMPO 1502/1512 2000 SN BR OVC008
Issued Valid From Valid To
Dec-14 @ 17:00 UTC
(5 hours ago)
Dec-14 @ 18:00 UTC
(4 hours ago)
Dec-15 @ 18:00 UTC
(in 20 hours)
Dec-14 @ 18:00 to Dec-15 @ 18:00
TAF LKNA 141700Z 1418/1518 02010KT 7000 OVC022
Wind Visibility Clouds
20° at 10 knots 7,001 meters
  • Overcast at 2,200' AGL
Temporary Dec-15 @ 02:00 to Dec-15 @ 12:00
TEMPO 1502/1512 2000 SN BR OVC008
Visibility Clouds Conditions
1,996 meters
  • Overcast at 800' AGL
  • Snow
  • Mist
TAF LKNA 141700Z 1418/1518 02010KT 7000 OVC022 TEMPO 1502/1512 2000 SN BR OVC008
Issued Dec-14 @ 17:00 UTC
(5 hours ago)
Valid From Dec-14 @ 18:00 UTC
(4 hours ago)
Valid To Dec-15 @ 18:00 UTC
(in 20 hours)
Dec-14 @ 18:00 - Dec-15 @ 18:00
Wind Visibility
20° at 10 knots 7,001 meters
Clouds
  • Overcast at 2,200' AGL
Temporary Dec-15 @ 02:00 - Dec-15 @ 12:00
Clouds
  • Overcast at 800' AGL
Conditions
  • Snow
  • Mist